createdAt,value
2022-11-20T00:02:42.603Z,15.75
2022-11-20T00:05:46.387Z,16.35
2022-11-20T00:08:51.181Z,16.45
2022-11-20T00:11:55.312Z,16.20
2022-11-20T00:14:59.425Z,16.27
2022-11-20T00:18:03.595Z,15.63
2022-11-20T00:21:13.029Z,15.98
2022-11-20T00:24:16.988Z,16.25
2022-11-20T00:27:21.074Z,16.95
2022-11-20T00:30:24.918Z,16.58
2022-11-20T00:33:29.163Z,16.90
2022-11-20T00:36:34.691Z,16.77
2022-11-20T00:39:38.809Z,16.52
2022-11-20T00:42:42.593Z,16.55
2022-11-20T00:45:46.456Z,17.13
2022-11-20T00:48:50.678Z,16.92
2022-11-20T00:51:54.768Z,17.05
2022-11-20T00:54:58.429Z,17.63
2022-11-20T00:58:04.553Z,17.15
2022-11-20T01:01:32.589Z,17.55
2022-11-20T01:04:36.497Z,16.38
2022-11-20T01:07:40.478Z,16.38
2022-11-20T01:10:44.404Z,17.00
2022-11-20T01:13:49.992Z,15.35
2022-11-20T01:16:54.276Z,16.85
2022-11-20T01:19:58.352Z,15.93
2022-11-20T01:23:03.231Z,17.80
2022-11-20T01:26:10.381Z,17.42
2022-11-20T01:29:16.930Z,16.50
2022-11-20T01:32:21.107Z,16.80
2022-11-20T01:35:25.033Z,16.25
2022-11-20T01:38:29.313Z,16.63
2022-11-20T01:41:53.217Z,16.77
2022-11-20T01:45:01.172Z,16.05
2022-11-20T01:48:05.158Z,17.13
2022-11-20T01:51:20.053Z,16.88
2022-11-20T01:54:39.289Z,16.42
2022-11-20T01:57:45.072Z,15.40
2022-11-20T02:00:49.694Z,16.30
2022-11-20T02:03:54.113Z,17.08
2022-11-20T02:07:01.581Z,16.40
2022-11-20T02:10:05.626Z,16.30
2022-11-20T02:13:28.843Z,16.75
2022-11-20T02:16:40.205Z,16.30
2022-11-20T02:19:44.433Z,16.55
2022-11-20T02:23:03.522Z,16.00
2022-11-20T02:26:12.159Z,16.92
2022-11-20T02:29:20.687Z,15.82
2022-11-20T02:32:30.781Z,16.15
2022-11-20T02:35:34.847Z,16.73
2022-11-20T02:38:39.035Z,18.10
2022-11-20T02:41:43.347Z,18.48
2022-11-20T02:44:47.420Z,18.52
2022-11-20T02:47:52.439Z,18.02
2022-11-20T02:50:56.610Z,18.67
2022-11-20T02:54:01.062Z,19.25
2022-11-20T02:57:04.993Z,18.70
2022-11-20T03:00:09.994Z,19.40
2022-11-20T03:03:13.904Z,18.50
2022-11-20T03:06:18.035Z,18.77
2022-11-20T03:09:22.641Z,18.17
2022-11-20T03:12:26.722Z,18.88
2022-11-20T03:15:30.959Z,18.35
2022-11-20T03:18:35.216Z,19.70
2022-11-20T03:21:39.471Z,19.65
2022-11-20T03:24:43.483Z,19.55
2022-11-20T03:27:47.457Z,19.58
2022-11-20T03:30:51.759Z,19.83
2022-11-20T03:33:57.046Z,20.15
2022-11-20T03:37:00.933Z,20.50
2022-11-20T03:40:05.490Z,20.38
2022-11-20T03:43:10.568Z,21.02
2022-11-20T03:46:14.556Z,20.92
2022-11-20T03:49:18.700Z,20.25
2022-11-20T03:52:22.719Z,20.70
2022-11-20T03:55:26.536Z,21.02
2022-11-20T03:58:30.907Z,21.70
2022-11-20T04:01:38.250Z,21.33
2022-11-20T04:04:42.503Z,20.48
2022-11-20T04:07:46.595Z,22.25
2022-11-20T04:10:50.430Z,21.40
2022-11-20T04:13:59.970Z,21.48
2022-11-20T04:17:04.580Z,20.90
2022-11-20T04:20:08.686Z,20.85
2022-11-20T04:23:12.657Z,21.38
2022-11-20T04:26:17.445Z,22.67
2022-11-20T04:29:21.663Z,21.98
2022-11-20T04:32:25.644Z,21.30
2022-11-20T04:35:29.507Z,20.65
2022-11-20T04:38:33.858Z,22.02
2022-11-20T04:41:38.135Z,22.48
2022-11-20T04:44:42.404Z,21.55
2022-11-20T04:47:46.225Z,21.23
2022-11-20T04:50:51.067Z,22.05
2022-11-20T04:53:55.558Z,20.95
2022-11-20T04:56:59.409Z,22.13
2022-11-20T05:00:04.395Z,21.50
2022-11-20T05:03:08.727Z,22.52
2022-11-20T05:06:15.348Z,21.65
2022-11-20T05:09:19.434Z,22.23
2022-11-20T05:12:23.973Z,21.85
2022-11-20T05:15:27.818Z,21.65
2022-11-20T05:18:31.520Z,22.52
2022-11-20T05:21:35.582Z,22.05
2022-11-20T05:24:39.629Z,23.17
2022-11-20T05:27:43.759Z,23.00
2022-11-20T05:30:48.271Z,22.25
2022-11-20T05:33:52.312Z,22.30
2022-11-20T05:36:56.174Z,21.92
2022-11-20T05:40:00.335Z,21.90
2022-11-20T05:43:04.721Z,22.50
2022-11-20T05:46:11.466Z,21.58
2022-11-20T05:49:15.187Z,22.10
2022-11-20T05:52:19.070Z,23.35
2022-11-20T05:55:23.043Z,22.35
2022-11-20T05:58:27.210Z,21.73
2022-11-20T06:01:31.337Z,22.77
2022-11-20T06:04:35.150Z,22.92
2022-11-20T06:07:38.981Z,21.67
2022-11-20T06:10:42.932Z,22.85
2022-11-20T06:13:47.757Z,22.75
2022-11-20T06:16:51.593Z,22.55
2022-11-20T06:19:55.484Z,22.55
2022-11-20T06:22:59.814Z,22.77
2022-11-20T06:26:12.567Z,22.08
2022-11-20T06:29:16.731Z,21.88
2022-11-20T06:32:21.118Z,21.98
2022-11-20T06:35:25.001Z,22.67
2022-11-20T06:38:29.360Z,22.38
2022-11-20T06:41:33.380Z,22.42
2022-11-20T06:44:37.356Z,23.00
2022-11-20T06:47:41.622Z,22.55
2022-11-20T06:50:45.645Z,22.33
2022-11-20T06:53:49.731Z,22.27
2022-11-20T06:56:54.028Z,23.13
2022-11-20T06:59:58.297Z,21.98
2022-11-20T07:03:06.440Z,22.25
2022-11-20T07:06:11.766Z,22.20
2022-11-20T07:09:15.915Z,21.98
2022-11-20T07:12:19.933Z,22.52
2022-11-20T07:15:25.838Z,21.35
2022-11-20T07:18:29.750Z,21.90
2022-11-20T07:21:34.015Z,22.98
2022-11-20T07:24:40.772Z,23.25
2022-11-20T07:27:48.526Z,22.58
2022-11-20T07:30:54.105Z,21.73
2022-11-20T07:33:57.989Z,22.60
2022-11-20T07:37:06.031Z,22.90
2022-11-20T07:40:14.628Z,22.10
2022-11-20T07:43:18.758Z,22.40
2022-11-20T07:46:23.225Z,22.13
2022-11-20T07:49:27.458Z,23.10
2022-11-20T07:52:31.490Z,21.73
2022-11-20T07:55:35.447Z,22.88
2022-11-20T07:58:39.378Z,21.65
2022-11-20T08:01:44.048Z,22.58
2022-11-20T08:04:48.320Z,22.40
2022-11-20T08:07:52.217Z,21.35
2022-11-20T08:11:18.564Z,22.27
2022-11-20T08:14:22.706Z,22.33
2022-11-20T08:17:26.855Z,21.50
2022-11-20T08:20:31.172Z,21.17
2022-11-20T08:23:35.423Z,21.38
2022-11-20T08:26:40.316Z,21.85
2022-11-20T08:29:44.352Z,22.02
2022-11-20T08:32:48.765Z,20.88
2022-11-20T08:35:52.875Z,19.77
2022-11-20T08:38:57.154Z,20.52
2022-11-20T08:42:01.300Z,20.77
2022-11-20T08:45:05.866Z,21.23
2022-11-20T08:48:09.764Z,20.17
2022-11-20T08:51:14.498Z,20.00
2022-11-20T08:54:20.795Z,21.23
2022-11-20T08:57:25.056Z,20.75
2022-11-20T09:00:29.139Z,19.95
2022-11-20T09:03:33.893Z,20.85
2022-11-20T09:06:38.142Z,19.65
2022-11-20T09:09:42.396Z,19.65
2022-11-20T09:12:49.935Z,18.52
2022-11-20T09:15:59.912Z,17.67
2022-11-20T09:22:27.977Z,17.70
2022-11-20T09:25:32.068Z,16.67
2022-11-20T09:28:36.642Z,17.35
2022-11-20T09:31:40.562Z,17.10
2022-11-20T09:34:44.383Z,17.65
2022-11-20T09:37:48.609Z,17.40
2022-11-20T09:41:27.182Z,17.73
2022-11-20T09:44:38.798Z,16.38
2022-11-20T09:47:42.482Z,17.80
2022-11-20T09:51:23.241Z,18.20
2022-11-20T09:54:32.480Z,17.50
2022-11-20T09:57:40.142Z,16.67
2022-11-20T10:00:44.988Z,17.48
2022-11-20T10:04:00.689Z,18.45
2022-11-20T10:07:38.590Z,20.55
2022-11-20T10:10:50.810Z,17.40
2022-11-20T10:14:03.934Z,17.65
2022-11-20T10:17:26.214Z,17.50
2022-11-20T10:20:39.437Z,17.48
2022-11-20T10:23:56.183Z,18.23
2022-11-20T10:27:15.644Z,17.38
2022-11-20T10:30:22.834Z,17.83
2022-11-20T10:33:50.181Z,17.73
2022-11-20T10:37:06.105Z,17.70
2022-11-20T10:40:42.588Z,17.35
2022-11-20T10:43:48.838Z,16.42
2022-11-20T10:46:52.922Z,16.25
2022-11-20T10:50:02.238Z,16.67
2022-11-20T10:53:41.359Z,16.45
2022-11-20T10:56:52.063Z,15.90
2022-11-20T11:00:04.428Z,15.27
2022-11-20T11:03:29.956Z,15.83
2022-11-20T11:06:40.664Z,15.45
2022-11-20T11:09:50.858Z,14.75
2022-11-20T11:12:54.621Z,13.93
2022-11-20T11:15:58.878Z,13.60
2022-11-20T11:19:07.680Z,16.23
2022-11-20T11:22:18.862Z,13.20
2022-11-20T11:25:35.725Z,18.33
2022-11-20T11:28:39.747Z,12.52
2022-11-20T11:31:43.575Z,11.55
2022-11-20T11:35:00.625Z,10.68
2022-11-20T11:38:15.919Z,9.98
2022-11-20T11:41:32.461Z,10.57
2022-11-20T11:44:55.918Z,9.98
2022-11-20T11:48:04.585Z,10.25
2022-11-20T11:51:09.485Z,10.45
2022-11-20T11:54:21.018Z,10.70
2022-11-20T11:58:09.992Z,10.38
2022-11-20T12:01:35.559Z,10.38
2022-11-20T12:04:49.599Z,10.35
2022-11-20T12:08:27.586Z,10.27
2022-11-20T12:11:51.065Z,10.23
2022-11-20T12:18:00.649Z,11.13
2022-11-20T12:21:30.099Z,10.50
2022-11-20T12:25:08.604Z,10.23
2022-11-20T12:28:31.085Z,10.30
2022-11-20T12:31:41.295Z,10.57
2022-11-20T12:35:16.339Z,10.48
2022-11-20T12:38:59.173Z,11.02
2022-11-20T12:42:30.926Z,10.27
2022-11-20T12:45:47.767Z,11.10
2022-11-20T12:49:30.432Z,11.20
2022-11-20T12:52:49.025Z,10.75
2022-11-20T12:55:53.291Z,10.77
2022-11-20T12:59:21.400Z,13.48
2022-11-20T13:02:39.734Z,12.95
2022-11-20T13:05:56.349Z,11.40
2022-11-20T13:09:01.599Z,11.10
2022-11-20T13:12:19.713Z,11.55
2022-11-20T13:15:41.086Z,10.90
2022-11-20T13:18:46.241Z,10.40
2022-11-20T13:21:51.492Z,11.48
2022-11-20T13:24:55.764Z,11.52
2022-11-20T13:28:03.903Z,10.68
2022-11-20T13:31:26.475Z,10.68
2022-11-20T13:34:31.072Z,10.90
2022-11-20T13:37:37.789Z,11.18
2022-11-20T13:41:00.226Z,10.57
2022-11-20T13:44:16.068Z,9.98
2022-11-20T13:47:29.017Z,10.73
2022-11-20T13:50:40.995Z,9.85
2022-11-20T13:54:02.078Z,9.80
2022-11-20T13:57:47.532Z,10.55
2022-11-20T14:01:27.028Z,10.35
2022-11-20T14:04:34.707Z,8.88
2022-11-20T14:07:43.026Z,9.00
2022-11-20T14:10:46.947Z,8.85
2022-11-20T14:14:17.292Z,9.73
2022-11-20T14:17:41.324Z,9.60
2022-11-20T14:20:45.975Z,10.40
2022-11-20T14:23:50.276Z,10.73
2022-11-20T14:26:54.057Z,12.57
2022-11-20T14:30:02.027Z,10.88
2022-11-20T14:33:06.522Z,10.60
2022-11-20T14:36:18.304Z,11.05
2022-11-20T14:39:23.517Z,10.65
2022-11-20T14:42:29.486Z,10.88
2022-11-20T14:45:33.398Z,11.95
2022-11-20T14:48:50.321Z,11.35
2022-11-20T14:52:03.971Z,12.05
2022-11-20T14:55:09.716Z,11.10
2022-11-20T14:58:25.602Z,10.93
2022-11-20T15:01:31.704Z,11.57
2022-11-20T15:04:49.141Z,12.00
2022-11-20T15:08:07.788Z,11.70
2022-11-20T15:11:28.649Z,12.52
2022-11-20T15:14:33.577Z,12.43
2022-11-20T15:17:41.016Z,12.85
2022-11-20T15:20:45.178Z,12.65
2022-11-20T15:23:49.901Z,13.32
2022-11-20T15:26:53.950Z,13.38
2022-11-20T15:29:57.991Z,16.13
2022-11-20T15:33:01.746Z,14.82
2022-11-20T15:36:06.207Z,13.57
2022-11-20T15:39:11.937Z,13.32
2022-11-20T15:42:16.104Z,12.38
2022-11-20T15:45:19.973Z,12.43
2022-11-20T15:48:28.072Z,13.13
2022-11-20T15:51:35.260Z,12.18
2022-11-20T15:54:39.218Z,13.63
2022-11-20T15:57:43.320Z,12.10
2022-11-20T16:00:47.530Z,12.65
2022-11-20T16:03:51.738Z,13.02
2022-11-20T16:06:56.356Z,12.77
2022-11-20T16:10:00.321Z,13.48
2022-11-20T16:13:30.952Z,12.32
2022-11-20T16:16:40.127Z,13.57
2022-11-20T16:19:44.218Z,13.93
2022-11-20T16:22:48.399Z,13.30
2022-11-20T16:25:52.895Z,14.38
2022-11-20T16:28:57.400Z,14.32
2022-11-20T16:32:01.571Z,19.05
2022-11-20T16:35:06.264Z,15.40
2022-11-20T16:38:10.843Z,15.65
2022-11-20T16:41:15.083Z,14.30
2022-11-20T16:44:19.392Z,25.27
2022-11-20T16:47:23.674Z,23.67
2022-11-20T16:50:27.772Z,16.90
2022-11-20T16:53:33.769Z,18.63
2022-11-20T16:56:39.132Z,16.02
2022-11-20T16:59:43.300Z,15.90
2022-11-20T17:02:47.481Z,15.68
2022-11-20T17:05:51.697Z,15.48
2022-11-20T17:08:56.765Z,15.23
2022-11-20T17:12:01.318Z,16.25
2022-11-20T17:15:05.679Z,16.90
2022-11-20T17:18:10.019Z,16.27
2022-11-20T17:21:14.158Z,15.60
2022-11-20T17:24:18.355Z,17.23
2022-11-20T17:27:22.290Z,16.52
2022-11-20T17:30:27.240Z,18.60
2022-11-20T17:33:31.389Z,17.40
2022-11-20T17:36:37.672Z,16.83
2022-11-20T17:39:44.872Z,18.05
2022-11-20T17:42:49.110Z,17.77
2022-11-20T17:45:53.014Z,17.33
2022-11-20T17:48:57.423Z,16.50
2022-11-20T17:52:01.679Z,16.40
2022-11-20T17:55:06.365Z,16.58
2022-11-20T17:58:11.546Z,15.23
2022-11-20T18:01:16.763Z,16.60
2022-11-20T18:04:21.186Z,16.60
2022-11-20T18:07:25.807Z,21.83
2022-11-20T18:10:31.097Z,19.63
2022-11-20T18:13:55.071Z,16.85
2022-11-20T18:17:03.849Z,16.90
2022-11-20T18:23:33.923Z,20.05
2022-11-20T18:26:43.878Z,18.77
2022-11-20T18:29:51.707Z,18.55
2022-11-20T18:32:56.010Z,18.42
2022-11-20T18:36:15.617Z,17.92
2022-11-20T18:39:19.558Z,17.65
2022-11-20T18:42:42.095Z,18.55
2022-11-20T18:45:46.135Z,17.40
2022-11-20T18:48:50.407Z,20.17
2022-11-20T18:51:55.069Z,18.15
2022-11-20T18:54:58.909Z,18.88
2022-11-20T18:58:03.221Z,18.35
2022-11-20T19:01:08.440Z,19.00
2022-11-20T19:04:14.776Z,20.52
2022-11-20T19:07:18.795Z,19.60
2022-11-20T19:10:24.308Z,19.60
2022-11-20T19:13:31.183Z,20.95
2022-11-20T19:16:35.541Z,20.02
2022-11-20T19:19:39.664Z,21.08
2022-11-20T19:22:43.745Z,20.92
2022-11-20T19:25:48.513Z,19.98
2022-11-20T19:28:52.530Z,20.08
2022-11-20T19:31:57.778Z,21.15
2022-11-20T19:35:02.054Z,21.50
2022-11-20T19:38:06.303Z,20.30
2022-11-20T19:41:10.567Z,22.20
2022-11-20T19:44:16.061Z,21.73
2022-11-20T19:47:20.059Z,21.30
2022-11-20T19:50:23.888Z,19.33
2022-11-20T19:53:29.962Z,19.20
2022-11-20T19:56:34.523Z,19.38
2022-11-20T19:59:38.848Z,18.40
2022-11-20T20:02:43.826Z,19.20
2022-11-20T20:05:48.010Z,21.20
2022-11-20T20:09:12.950Z,19.58
2022-11-20T20:12:17.312Z,18.33
2022-11-20T20:15:21.519Z,18.98
2022-11-20T20:18:25.682Z,18.75
2022-11-20T20:21:30.809Z,18.40
2022-11-20T20:24:34.740Z,19.42
2022-11-20T20:27:38.969Z,19.00
2022-11-20T20:30:43.041Z,18.60
2022-11-20T20:33:47.212Z,18.02
2022-11-20T20:36:51.532Z,18.00
2022-11-20T20:39:55.879Z,18.10
2022-11-20T20:42:59.934Z,18.60
2022-11-20T20:46:03.772Z,17.58
2022-11-20T20:49:08.615Z,16.92
2022-11-20T20:52:12.787Z,18.70
2022-11-20T20:55:17.169Z,17.23
2022-11-20T20:58:21.149Z,17.88
2022-11-20T21:01:28.726Z,17.73
2022-11-20T21:04:33.818Z,17.85
2022-11-20T21:07:57.927Z,18.08
2022-11-20T21:11:08.014Z,17.90
2022-11-20T21:14:11.797Z,18.25
2022-11-20T21:17:16.018Z,17.70
2022-11-20T21:20:38.761Z,17.60
2022-11-20T21:23:46.256Z,17.13
2022-11-20T21:26:52.128Z,16.83
2022-11-20T21:29:56.370Z,16.95
2022-11-20T21:33:00.892Z,16.55
2022-11-20T21:36:05.956Z,17.52
2022-11-20T21:39:10.975Z,18.60
2022-11-20T21:42:15.253Z,17.38
2022-11-20T21:45:19.720Z,17.67
2022-11-20T21:48:28.252Z,16.95
2022-11-20T21:51:33.252Z,17.90
2022-11-20T21:54:37.340Z,17.77
2022-11-20T21:57:41.271Z,18.42
2022-11-20T22:00:45.547Z,18.73
2022-11-20T22:03:51.756Z,18.77
2022-11-20T22:06:55.966Z,18.13
2022-11-20T22:09:59.948Z,18.85
2022-11-20T22:13:22.226Z,18.50
2022-11-20T22:16:26.732Z,18.90
2022-11-20T22:19:31.099Z,19.13
2022-11-20T22:22:35.413Z,18.45
2022-11-20T22:25:39.666Z,18.50
2022-11-20T22:28:47.434Z,19.63
2022-11-20T22:31:52.925Z,18.73
2022-11-20T22:34:56.541Z,18.85
2022-11-20T22:38:00.326Z,18.95
2022-11-20T22:41:12.465Z,19.67
2022-11-20T22:44:16.901Z,19.07
2022-11-20T22:47:21.086Z,20.08
2022-11-20T22:50:25.358Z,18.75
2022-11-20T22:53:29.179Z,19.17
2022-11-20T22:56:33.841Z,19.98
2022-11-20T22:59:37.978Z,20.00
2022-11-20T23:02:46.430Z,20.40
2022-11-20T23:05:50.515Z,20.08
2022-11-20T23:08:55.525Z,21.48
2022-11-20T23:11:59.909Z,20.25
2022-11-20T23:15:04.231Z,20.88
2022-11-20T23:18:08.158Z,21.77
2022-11-20T23:21:14.860Z,20.38
2022-11-20T23:24:19.584Z,21.58
2022-11-20T23:27:28.216Z,22.65
2022-11-20T23:30:32.851Z,21.48
2022-11-20T23:33:42.413Z,20.60
2022-11-20T23:36:46.363Z,22.23
2022-11-20T23:39:50.080Z,21.95
2022-11-20T23:43:12.834Z,22.48
2022-11-20T23:46:17.211Z,23.15
2022-11-20T23:49:21.143Z,21.73
2022-11-20T23:52:26.339Z,22.65
2022-11-20T23:55:30.560Z,23.08
2022-11-20T23:58:38.747Z,22.27
